Hauptseite
METAR-TAF:

METAR-TAF

Flughäfen :

Flughafen Peking

Peking, China

Breite: 39-56N, Länge: 116-17E, Höhe: 55 m

Beobachtung

Neuester Wetterbericht von vor 43 Minuten, um 18:00 UTC
Wind 4 kt aus Ost, variierte zwischen Ost und Südost
Temperatur 24°C
Luftfeuchtigkeit 74%
Luftdruck 1004 hPa
Sichtweite 10 km oder mehr
keine Wolken unter 1500 m und keine Kumulonimbus oder Gewitterwolken

METAR: ZBAA 221800Z 10002MPS 080V140 CAVOK 24/19 Q1004 NOSIG

Zeit: 02:43 (18:43 UTC)

Prognose

Neuester Wetterbericht von vor 3 Stunden und 42 Minuten, um 15:01 UTC
Gültige Prognose vom 22 um 18 UTC bis 23 um 18 UTC
Wind 8 kt aus Ost/Südost
Sichtweite: 4000 m
feuchter Dunst,

TAF: ZBAA 221501Z 2218/2318 12004MPS 4000 BR NSC TX32/2307Z TN20/2221Z

Wetterbeobachtungen und Prognosen von mehr als 4000 Flughäfen (METAR und TAF Bericht).

Die verfügbaren Stationen werden durch gelbe und rote Markierungen auf der Karte dargestellt.

Führen Sie die Maus auf sie, um den Namen der Station zu sehen.

Darauf klicken, um die Beobachtung von Wetterbeobachtungen und Prognosen zu sehen.

Um die Karte zu ändern : klicken Sie auf den grünen Tasten mit einem schwarzen Kreuz Zum Vergrößern, auf den grünen Button mit einem Gedankenstrich zu verkleinern, oder auf die grünen Pfeile für benachbarte Karten.


METAR-TAF: